sensor_id;sensor_type;location;lat;lon;timestamp;P1;durP1;ratioP1;P2;durP2;ratioP2
19347;SDS011;9810;52.480;9.806;2023-04-03T00:02:01;1.90;;;0.87;;
19347;SDS011;9810;52.480;9.806;2023-04-03T00:04:29;4.17;;;1.30;;
19347;SDS011;9810;52.480;9.806;2023-04-03T00:06:58;7.40;;;1.20;;
19347;SDS011;9810;52.480;9.806;2023-04-03T00:09:25;5.30;;;1.10;;
19347;SDS011;9810;52.480;9.806;2023-04-03T00:11:53;7.07;;;1.40;;
19347;SDS011;9810;52.480;9.806;2023-04-03T00:14:21;3.37;;;0.97;;
19347;SDS011;9810;52.480;9.806;2023-04-03T00:16:48;1.73;;;0.90;;
19347;SDS011;9810;52.480;9.806;2023-04-03T00:19:16;3.73;;;1.10;;
19347;SDS011;9810;52.480;9.806;2023-04-03T00:21:43;1.97;;;1.13;;
19347;SDS011;9810;52.480;9.806;2023-04-03T00:24:12;4.53;;;1.00;;
19347;SDS011;9810;52.480;9.806;2023-04-03T00:26:40;4.10;;;0.97;;
19347;SDS011;9810;52.480;9.806;2023-04-03T00:29:07;4.90;;;1.07;;
19347;SDS011;9810;52.480;9.806;2023-04-03T00:31:34;2.10;;;1.00;;
19347;SDS011;9810;52.480;9.806;2023-04-03T00:34:02;6.23;;;1.13;;
19347;SDS011;9810;52.480;9.806;2023-04-03T00:36:29;6.80;;;1.70;;
19347;SDS011;9810;52.480;9.806;2023-04-03T00:38:56;2.70;;;1.00;;
19347;SDS011;9810;52.480;9.806;2023-04-03T00:41:26;5.70;;;1.30;;
19347;SDS011;9810;52.480;9.806;2023-04-03T00:43:53;1.20;;;1.10;;
19347;SDS011;9810;52.480;9.806;2023-04-03T00:46:20;3.53;;;1.40;;
19347;SDS011;9810;52.480;9.806;2023-04-03T00:48:48;3.50;;;1.17;;
19347;SDS011;9810;52.480;9.806;2023-04-03T00:51:16;4.10;;;1.20;;
19347;SDS011;9810;52.480;9.806;2023-04-03T00:53:50;3.50;;;1.07;;
19347;SDS011;9810;52.480;9.806;2023-04-03T00:56:21;3.07;;;1.00;;
19347;SDS011;9810;52.480;9.806;2023-04-03T00:58:54;1.23;;;1.00;;
19347;SDS011;9810;52.480;9.806;2023-04-03T01:01:26;2.30;;;1.00;;
19347;SDS011;9810;52.480;9.806;2023-04-03T01:03:55;2.80;;;1.20;;
19347;SDS011;9810;52.480;9.806;2023-04-03T01:06:26;6.87;;;1.67;;
19347;SDS011;9810;52.480;9.806;2023-04-03T01:08:56;3.10;;;0.97;;
19347;SDS011;9810;52.480;9.806;2023-04-03T01:11:24;2.40;;;1.67;;
19347;SDS011;9810;52.480;9.806;2023-04-03T01:13:52;6.03;;;1.40;;
19347;SDS011;9810;52.480;9.806;2023-04-03T01:16:20;2.10;;;1.20;;
19347;SDS011;9810;52.480;9.806;2023-04-03T01:18:47;4.47;;;1.20;;
19347;SDS011;9810;52.480;9.806;2023-04-03T01:24:11;4.53;;;1.77;;
19347;SDS011;9810;52.480;9.806;2023-04-03T01:26:54;6.87;;;1.80;;
19347;SDS011;9810;52.480;9.806;2023-04-03T01:29:23;2.87;;;1.20;;
19347;SDS011;9810;52.480;9.806;2023-04-03T01:31:53;4.20;;;1.60;;
19347;SDS011;9810;52.480;9.806;2023-04-03T01:34:21;3.73;;;1.30;;
19347;SDS011;9810;52.480;9.806;2023-04-03T01:36:48;0.87;;;0.70;;
19347;SDS011;9810;52.480;9.806;2023-04-03T01:39:17;1.60;;;1.27;;
19347;SDS011;9810;52.480;9.806;2023-04-03T01:41:45;4.73;;;1.30;;
19347;SDS011;9810;52.480;9.806;2023-04-03T01:44:12;3.20;;;1.30;;
19347;SDS011;9810;52.480;9.806;2023-04-03T01:46:40;5.50;;;1.20;;
19347;SDS011;9810;52.480;9.806;2023-04-03T01:49:09;5.27;;;1.83;;
19347;SDS011;9810;52.480;9.806;2023-04-03T01:51:36;2.10;;;1.17;;
19347;SDS011;9810;52.480;9.806;2023-04-03T01:54:04;4.13;;;1.03;;
19347;SDS011;9810;52.480;9.806;2023-04-03T01:56:33;3.87;;;1.40;;
19347;SDS011;9810;52.480;9.806;2023-04-03T01:59:00;3.70;;;1.03;;
19347;SDS011;9810;52.480;9.806;2023-04-03T02:01:28;4.73;;;1.33;;
19347;SDS011;9810;52.480;9.806;2023-04-03T02:03:55;3.10;;;0.97;;
19347;SDS011;9810;52.480;9.806;2023-04-03T02:06:24;6.73;;;1.20;;
19347;SDS011;9810;52.480;9.806;2023-04-03T02:08:52;3.30;;;1.40;;
19347;SDS011;9810;52.480;9.806;2023-04-03T02:11:19;4.80;;;2.90;;
19347;SDS011;9810;52.480;9.806;2023-04-03T02:13:46;5.10;;;1.40;;
19347;SDS011;9810;52.480;9.806;2023-04-03T02:16:13;3.03;;;1.27;;
19347;SDS011;9810;52.480;9.806;2023-04-03T02:18:41;6.07;;;1.37;;
19347;SDS011;9810;52.480;9.806;2023-04-03T02:21:08;2.87;;;1.00;;
19347;SDS011;9810;52.480;9.806;2023-04-03T02:23:37;2.20;;;1.10;;
19347;SDS011;9810;52.480;9.806;2023-04-03T02:26:05;3.60;;;1.10;;
19347;SDS011;9810;52.480;9.806;2023-04-03T02:28:34;3.83;;;2.10;;
19347;SDS011;9810;52.480;9.806;2023-04-03T02:31:01;4.47;;;1.30;;
19347;SDS011;9810;52.480;9.806;2023-04-03T02:33:29;2.87;;;1.20;;
19347;SDS011;9810;52.480;9.806;2023-04-03T02:35:57;8.00;;;1.43;;
19347;SDS011;9810;52.480;9.806;2023-04-03T02:38:25;2.87;;;1.30;;
19347;SDS011;9810;52.480;9.806;2023-04-03T02:40:57;1.87;;;1.40;;
19347;SDS011;9810;52.480;9.806;2023-04-03T02:43:27;3.83;;;0.90;;
19347;SDS011;9810;52.480;9.806;2023-04-03T02:45:54;1.70;;;1.00;;
19347;SDS011;9810;52.480;9.806;2023-04-03T02:48:22;2.33;;;1.10;;
19347;SDS011;9810;52.480;9.806;2023-04-03T02:50:50;9.63;;;1.77;;
19347;SDS011;9810;52.480;9.806;2023-04-03T02:53:17;4.07;;;1.40;;
19347;SDS011;9810;52.480;9.806;2023-04-03T02:55:45;6.70;;;1.57;;
19347;SDS011;9810;52.480;9.806;2023-04-03T02:58:14;2.27;;;1.03;;
19347;SDS011;9810;52.480;9.806;2023-04-03T03:00:41;9.40;;;1.20;;
19347;SDS011;9810;52.480;9.806;2023-04-03T03:03:09;3.23;;;1.10;;
19347;SDS011;9810;52.480;9.806;2023-04-03T03:05:36;8.13;;;1.37;;
19347;SDS011;9810;52.480;9.806;2023-04-03T03:08:03;6.07;;;1.37;;
19347;SDS011;9810;52.480;9.806;2023-04-03T03:10:31;5.37;;;1.73;;
19347;SDS011;9810;52.480;9.806;2023-04-03T03:12:58;8.37;;;1.47;;
19347;SDS011;9810;52.480;9.806;2023-04-03T03:15:27;3.60;;;0.83;;
19347;SDS011;9810;52.480;9.806;2023-04-03T03:17:55;5.03;;;1.30;;
19347;SDS011;9810;52.480;9.806;2023-04-03T03:20:22;3.97;;;1.60;;
19347;SDS011;9810;52.480;9.806;2023-04-03T03:22:49;3.73;;;1.20;;
19347;SDS011;9810;52.480;9.806;2023-04-03T03:25:16;3.87;;;1.23;;
19347;SDS011;9810;52.480;9.806;2023-04-03T03:27:43;4.10;;;1.10;;
19347;SDS011;9810;52.480;9.806;2023-04-03T03:30:11;5.23;;;1.50;;
19347;SDS011;9810;52.480;9.806;2023-04-03T03:32:40;8.50;;;1.37;;
19347;SDS011;9810;52.480;9.806;2023-04-03T03:35:08;8.00;;;1.50;;
19347;SDS011;9810;52.480;9.806;2023-04-03T03:37:35;3.20;;;1.53;;
19347;SDS011;9810;52.480;9.806;2023-04-03T03:40:03;9.50;;;1.70;;
19347;SDS011;9810;52.480;9.806;2023-04-03T03:42:31;2.93;;;1.20;;
19347;SDS011;9810;52.480;9.806;2023-04-03T03:44:58;2.97;;;1.23;;
19347;SDS011;9810;52.480;9.806;2023-04-03T03:47:25;2.80;;;1.00;;
19347;SDS011;9810;52.480;9.806;2023-04-03T03:49:54;2.03;;;1.23;;
19347;SDS011;9810;52.480;9.806;2023-04-03T03:52:21;4.70;;;1.03;;
19347;SDS011;9810;52.480;9.806;2023-04-03T03:54:48;6.30;;;1.70;;
19347;SDS011;9810;52.480;9.806;2023-04-03T03:57:16;5.40;;;1.70;;
19347;SDS011;9810;52.480;9.806;2023-04-03T03:59:43;5.30;;;1.30;;
19347;SDS011;9810;52.480;9.806;2023-04-03T04:02:10;2.47;;;1.40;;
19347;SDS011;9810;52.480;9.806;2023-04-03T04:04:38;3.80;;;1.13;;
19347;SDS011;9810;52.480;9.806;2023-04-03T04:07:07;5.33;;;1.40;;
19347;SDS011;9810;52.480;9.806;2023-04-03T04:09:34;8.67;;;1.30;;
19347;SDS011;9810;52.480;9.806;2023-04-03T04:12:01;6.00;;;1.00;;
19347;SDS011;9810;52.480;9.806;2023-04-03T04:14:28;8.57;;;2.00;;
19347;SDS011;9810;52.480;9.806;2023-04-03T04:16:56;4.07;;;1.17;;
19347;SDS011;9810;52.480;9.806;2023-04-03T04:19:23;10.37;;;1.93;;
19347;SDS011;9810;52.480;9.806;2023-04-03T04:21:50;7.20;;;1.30;;
19347;SDS011;9810;52.480;9.806;2023-04-03T04:24:19;5.43;;;1.60;;
19347;SDS011;9810;52.480;9.806;2023-04-03T04:26:47;6.97;;;1.73;;
19347;SDS011;9810;52.480;9.806;2023-04-03T04:29:15;3.57;;;1.40;;
19347;SDS011;9810;52.480;9.806;2023-04-03T04:31:42;3.70;;;1.23;;
19347;SDS011;9810;52.480;9.806;2023-04-03T04:34:09;10.40;;;1.77;;
19347;SDS011;9810;52.480;9.806;2023-04-03T04:36:38;7.10;;;1.47;;
19347;SDS011;9810;52.480;9.806;2023-04-03T04:39:05;11.73;;;1.50;;
19347;SDS011;9810;52.480;9.806;2023-04-03T04:41:34;3.40;;;1.60;;
19347;SDS011;9810;52.480;9.806;2023-04-03T04:44:01;6.93;;;1.63;;
19347;SDS011;9810;52.480;9.806;2023-04-03T04:46:29;6.30;;;1.33;;
19347;SDS011;9810;52.480;9.806;2023-04-03T04:48:56;4.87;;;1.63;;
19347;SDS011;9810;52.480;9.806;2023-04-03T04:51:24;2.23;;;1.33;;
19347;SDS011;9810;52.480;9.806;2023-04-03T04:53:51;2.10;;;1.67;;
19347;SDS011;9810;52.480;9.806;2023-04-03T04:56:18;8.17;;;2.37;;
19347;SDS011;9810;52.480;9.806;2023-04-03T04:58:47;5.53;;;1.43;;
19347;SDS011;9810;52.480;9.806;2023-04-03T05:01:15;7.50;;;1.83;;
19347;SDS011;9810;52.480;9.806;2023-04-03T05:03:43;4.23;;;1.20;;
19347;SDS011;9810;52.480;9.806;2023-04-03T05:06:11;5.67;;;1.53;;
19347;SDS011;9810;52.480;9.806;2023-04-03T05:08:38;5.13;;;1.30;;
19347;SDS011;9810;52.480;9.806;2023-04-03T05:11:05;4.50;;;1.43;;
19347;SDS011;9810;52.480;9.806;2023-04-03T05:13:33;4.67;;;1.60;;
19347;SDS011;9810;52.480;9.806;2023-04-03T05:16:02;2.77;;;1.40;;
19347;SDS011;9810;52.480;9.806;2023-04-03T05:18:31;2.73;;;1.40;;
19347;SDS011;9810;52.480;9.806;2023-04-03T05:20:58;9.68;;;1.70;;
19347;SDS011;9810;52.480;9.806;2023-04-03T05:23:26;4.73;;;1.60;;
19347;SDS011;9810;52.480;9.806;2023-04-03T05:25:53;3.10;;;1.07;;
19347;SDS011;9810;52.480;9.806;2023-04-03T05:28:20;3.10;;;1.43;;
19347;SDS011;9810;52.480;9.806;2023-04-03T05:30:52;4.97;;;1.50;;
19347;SDS011;9810;52.480;9.806;2023-04-03T05:33:22;5.93;;;1.70;;
19347;SDS011;9810;52.480;9.806;2023-04-03T05:35:49;7.17;;;2.07;;
19347;SDS011;9810;52.480;9.806;2023-04-03T05:38:17;7.57;;;2.33;;
19347;SDS011;9810;52.480;9.806;2023-04-03T05:40:45;5.00;;;2.33;;
19347;SDS011;9810;52.480;9.806;2023-04-03T05:43:12;4.63;;;1.50;;
19347;SDS011;9810;52.480;9.806;2023-04-03T05:45:40;4.43;;;1.73;;
19347;SDS011;9810;52.480;9.806;2023-04-03T05:48:07;3.10;;;1.73;;
19347;SDS011;9810;52.480;9.806;2023-04-03T05:50:37;3.27;;;1.50;;
19347;SDS011;9810;52.480;9.806;2023-04-03T05:53:07;6.00;;;2.30;;
19347;SDS011;9810;52.480;9.806;2023-04-03T05:55:43;2.70;;;1.60;;
19347;SDS011;9810;52.480;9.806;2023-04-03T05:58:10;4.27;;;1.67;;
19347;SDS011;9810;52.480;9.806;2023-04-03T06:00:37;9.20;;;2.50;;
19347;SDS011;9810;52.480;9.806;2023-04-03T06:03:05;5.33;;;1.70;;
19347;SDS011;9810;52.480;9.806;2023-04-03T06:05:32;2.73;;;1.40;;
19347;SDS011;9810;52.480;9.806;2023-04-03T06:08:01;8.80;;;2.00;;
19347;SDS011;9810;52.480;9.806;2023-04-03T06:10:29;3.20;;;1.27;;
19347;SDS011;9810;52.480;9.806;2023-04-03T06:12:56;5.20;;;1.93;;
19347;SDS011;9810;52.480;9.806;2023-04-03T06:15:23;6.27;;;1.50;;
19347;SDS011;9810;52.480;9.806;2023-04-03T06:17:50;2.87;;;1.60;;
19347;SDS011;9810;52.480;9.806;2023-04-03T06:20:17;2.87;;;1.20;;
19347;SDS011;9810;52.480;9.806;2023-04-03T06:22:45;7.13;;;1.00;;
19347;SDS011;9810;52.480;9.806;2023-04-03T06:25:14;8.03;;;1.30;;
19347;SDS011;9810;52.480;9.806;2023-04-03T06:27:42;9.80;;;1.67;;
19347;SDS011;9810;52.480;9.806;2023-04-03T06:30:10;6.47;;;1.57;;
19347;SDS011;9810;52.480;9.806;2023-04-03T06:32:37;5.67;;;2.20;;
19347;SDS011;9810;52.480;9.806;2023-04-03T06:35:05;4.27;;;1.47;;
19347;SDS011;9810;52.480;9.806;2023-04-03T06:37:33;4.93;;;1.50;;
19347;SDS011;9810;52.480;9.806;2023-04-03T06:40:01;6.20;;;1.10;;
19347;SDS011;9810;52.480;9.806;2023-04-03T06:42:31;7.50;;;1.33;;
19347;SDS011;9810;52.480;9.806;2023-04-03T06:44:58;5.40;;;1.50;;
19347;SDS011;9810;52.480;9.806;2023-04-03T06:47:25;2.80;;;2.00;;
19347;SDS011;9810;52.480;9.806;2023-04-03T06:49:53;6.60;;;1.27;;
19347;SDS011;9810;52.480;9.806;2023-04-03T06:52:21;3.90;;;1.33;;
19347;SDS011;9810;52.480;9.806;2023-04-03T06:54:48;3.20;;;1.20;;
19347;SDS011;9810;52.480;9.806;2023-04-03T06:57:22;5.37;;;1.33;;
19347;SDS011;9810;52.480;9.806;2023-04-03T06:59:51;3.67;;;1.20;;
19347;SDS011;9810;52.480;9.806;2023-04-03T07:02:18;9.83;;;1.47;;
19347;SDS011;9810;52.480;9.806;2023-04-03T07:04:45;3.70;;;1.30;;
19347;SDS011;9810;52.480;9.806;2023-04-03T07:07:13;6.27;;;1.17;;
19347;SDS011;9810;52.480;9.806;2023-04-03T07:09:41;5.33;;;1.10;;
19347;SDS011;9810;52.480;9.806;2023-04-03T07:12:08;5.47;;;1.50;;
19347;SDS011;9810;52.480;9.806;2023-04-03T07:14:36;5.63;;;1.30;;
19347;SDS011;9810;52.480;9.806;2023-04-03T07:17:05;5.00;;;1.33;;
19347;SDS011;9810;52.480;9.806;2023-04-03T07:19:32;4.90;;;1.20;;
19347;SDS011;9810;52.480;9.806;2023-04-03T07:21:59;4.20;;;1.20;;
19347;SDS011;9810;52.480;9.806;2023-04-03T07:24:27;4.77;;;1.40;;
19347;SDS011;9810;52.480;9.806;2023-04-03T07:26:54;4.87;;;1.80;;
19347;SDS011;9810;52.480;9.806;2023-04-03T07:29:22;6.30;;;0.97;;
19347;SDS011;9810;52.480;9.806;2023-04-03T07:31:49;8.17;;;1.77;;
19347;SDS011;9810;52.480;9.806;2023-04-03T07:34:19;6.90;;;1.20;;
19347;SDS011;9810;52.480;9.806;2023-04-03T07:36:46;1.83;;;1.07;;
19347;SDS011;9810;52.480;9.806;2023-04-03T07:39:14;9.03;;;1.13;;
19347;SDS011;9810;52.480;9.806;2023-04-03T07:41:41;6.37;;;1.10;;
19347;SDS011;9810;52.480;9.806;2023-04-03T07:44:08;2.47;;;0.83;;
19347;SDS011;9810;52.480;9.806;2023-04-03T07:46:36;1.33;;;0.97;;
19347;SDS011;9810;52.480;9.806;2023-04-03T07:49:04;4.80;;;1.37;;
19347;SDS011;9810;52.480;9.806;2023-04-03T07:51:33;2.93;;;1.00;;
19347;SDS011;9810;52.480;9.806;2023-04-03T07:54:01;6.73;;;1.00;;
19347;SDS011;9810;52.480;9.806;2023-04-03T07:56:29;3.00;;;0.90;;
19347;SDS011;9810;52.480;9.806;2023-04-03T07:58:55;2.43;;;0.77;;
19347;SDS011;9810;52.480;9.806;2023-04-03T08:01:23;1.10;;;0.85;;
19347;SDS011;9810;52.480;9.806;2023-04-03T08:03:50;2.17;;;0.85;;
19347;SDS011;9810;52.480;9.806;2023-04-03T08:06:17;3.85;;;0.93;;
19347;SDS011;9810;52.480;9.806;2023-04-03T08:08:46;1.98;;;0.85;;
19347;SDS011;9810;52.480;9.806;2023-04-03T08:11:14;1.02;;;0.75;;
19347;SDS011;9810;52.480;9.806;2023-04-03T08:13:41;2.75;;;0.98;;
19347;SDS011;9810;52.480;9.806;2023-04-03T08:16:09;3.35;;;0.93;;
19347;SDS011;9810;52.480;9.806;2023-04-03T08:18:38;3.78;;;0.88;;
19347;SDS011;9810;52.480;9.806;2023-04-03T08:21:06;2.35;;;0.80;;
19347;SDS011;9810;52.480;9.806;2023-04-03T08:23:34;5.30;;;1.02;;
19347;SDS011;9810;52.480;9.806;2023-04-03T08:26:07;1.63;;;0.77;;
19347;SDS011;9810;52.480;9.806;2023-04-03T08:28:35;2.33;;;0.90;;
19347;SDS011;9810;52.480;9.806;2023-04-03T08:31:03;4.55;;;0.88;;
19347;SDS011;9810;52.480;9.806;2023-04-03T08:33:32;1.30;;;0.77;;
19347;SDS011;9810;52.480;9.806;2023-04-03T08:36:01;2.97;;;0.90;;
19347;SDS011;9810;52.480;9.806;2023-04-03T08:38:29;2.38;;;0.63;;
19347;SDS011;9810;52.480;9.806;2023-04-03T08:41:02;1.85;;;0.70;;
19347;SDS011;9810;52.480;9.806;2023-04-03T08:43:39;1.40;;;0.77;;
19347;SDS011;9810;52.480;9.806;2023-04-03T08:46:17;1.77;;;0.75;;
19347;SDS011;9810;52.480;9.806;2023-04-03T08:48:49;1.98;;;0.90;;
19347;SDS011;9810;52.480;9.806;2023-04-03T08:51:19;3.80;;;0.80;;
19347;SDS011;9810;52.480;9.806;2023-04-03T08:53:50;4.68;;;1.23;;
19347;SDS011;9810;52.480;9.806;2023-04-03T08:56:23;2.45;;;0.90;;
19347;SDS011;9810;52.480;9.806;2023-04-03T08:58:55;2.35;;;0.90;;
19347;SDS011;9810;52.480;9.806;2023-04-03T09:01:26;3.53;;;1.55;;
19347;SDS011;9810;52.480;9.806;2023-04-03T09:03:57;3.10;;;0.82;;
19347;SDS011;9810;52.480;9.806;2023-04-03T09:06:27;2.20;;;0.70;;
19347;SDS011;9810;52.480;9.806;2023-04-03T09:09:02;3.08;;;0.82;;
19347;SDS011;9810;52.480;9.806;2023-04-03T09:11:41;2.05;;;0.90;;
19347;SDS011;9810;52.480;9.806;2023-04-03T09:14:21;2.20;;;0.80;;
19347;SDS011;9810;52.480;9.806;2023-04-03T09:16:53;3.10;;;0.70;;
19347;SDS011;9810;52.480;9.806;2023-04-03T09:19:32;2.78;;;1.10;;
19347;SDS011;9810;52.480;9.806;2023-04-03T09:22:11;2.40;;;1.05;;
19347;SDS011;9810;52.480;9.806;2023-04-03T09:24:44;2.45;;;0.65;;
19347;SDS011;9810;52.480;9.806;2023-04-03T09:27:13;1.20;;;0.85;;
19347;SDS011;9810;52.480;9.806;2023-04-03T09:29:43;1.60;;;0.88;;
19347;SDS011;9810;52.480;9.806;2023-04-03T09:32:18;1.63;;;0.77;;
19347;SDS011;9810;52.480;9.806;2023-04-03T09:34:48;1.65;;;0.52;;
19347;SDS011;9810;52.480;9.806;2023-04-03T09:37:32;4.82;;;1.10;;
19347;SDS011;9810;52.480;9.806;2023-04-03T09:40:04;1.08;;;0.65;;
19347;SDS011;9810;52.480;9.806;2023-04-03T09:42:32;1.35;;;0.70;;
19347;SDS011;9810;52.480;9.806;2023-04-03T09:45:21;2.58;;;0.80;;
19347;SDS011;9810;52.480;9.806;2023-04-03T09:48:03;0.77;;;0.70;;
19347;SDS011;9810;52.480;9.806;2023-04-03T09:50:33;1.75;;;0.77;;
19347;SDS011;9810;52.480;9.806;2023-04-03T09:53:05;1.35;;;0.70;;
19347;SDS011;9810;52.480;9.806;2023-04-03T09:55:41;0.90;;;0.52;;
19347;SDS011;9810;52.480;9.806;2023-04-03T09:58:22;1.52;;;0.60;;
19347;SDS011;9810;52.480;9.806;2023-04-03T10:00:58;1.75;;;0.70;;
19347;SDS011;9810;52.480;9.806;2023-04-03T10:03:28;6.03;;;0.93;;
19347;SDS011;9810;52.480;9.806;2023-04-03T10:05:57;2.15;;;0.73;;
19347;SDS011;9810;52.480;9.806;2023-04-03T10:08:26;6.72;;;1.13;;
19347;SDS011;9810;52.480;9.806;2023-04-03T10:11:09;4.10;;;0.75;;
19347;SDS011;9810;52.480;9.806;2023-04-03T10:13:54;2.30;;;0.85;;
19347;SDS011;9810;52.480;9.806;2023-04-03T10:16:27;4.67;;;0.83;;
19347;SDS011;9810;52.480;9.806;2023-04-03T10:19:10;2.25;;;1.15;;
19347;SDS011;9810;52.480;9.806;2023-04-03T10:21:52;2.20;;;0.70;;
19347;SDS011;9810;52.480;9.806;2023-04-03T10:24:25;2.27;;;0.77;;
19347;SDS011;9810;52.480;9.806;2023-04-03T10:27:00;2.13;;;0.70;;
19347;SDS011;9810;52.480;9.806;2023-04-03T10:29:36;2.07;;;0.83;;
19347;SDS011;9810;52.480;9.806;2023-04-03T10:32:15;1.03;;;0.50;;
19347;SDS011;9810;52.480;9.806;2023-04-03T10:35:04;3.43;;;0.73;;
19347;SDS011;9810;52.480;9.806;2023-04-03T10:37:41;1.83;;;0.73;;
19347;SDS011;9810;52.480;9.806;2023-04-03T10:40:22;1.37;;;0.60;;
19347;SDS011;9810;52.480;9.806;2023-04-03T10:42:57;3.03;;;0.57;;
19347;SDS011;9810;52.480;9.806;2023-04-03T10:45:32;2.53;;;0.73;;
19347;SDS011;9810;52.480;9.806;2023-04-03T10:48:17;2.17;;;0.60;;
19347;SDS011;9810;52.480;9.806;2023-04-03T10:50:58;1.80;;;0.70;;
19347;SDS011;9810;52.480;9.806;2023-04-03T10:53:34;3.30;;;0.67;;
19347;SDS011;9810;52.480;9.806;2023-04-03T10:56:10;3.03;;;0.70;;
19347;SDS011;9810;52.480;9.806;2023-04-03T10:58:43;2.77;;;0.70;;
19347;SDS011;9810;52.480;9.806;2023-04-03T11:01:14;4.50;;;1.17;;
19347;SDS011;9810;52.480;9.806;2023-04-03T11:03:48;2.87;;;0.77;;
19347;SDS011;9810;52.480;9.806;2023-04-03T11:06:19;1.80;;;0.70;;
19347;SDS011;9810;52.480;9.806;2023-04-03T11:08:51;2.10;;;0.60;;
19347;SDS011;9810;52.480;9.806;2023-04-03T11:11:24;1.77;;;0.60;;
19347;SDS011;9810;52.480;9.806;2023-04-03T11:13:54;1.10;;;0.60;;
19347;SDS011;9810;52.480;9.806;2023-04-03T11:16:28;4.33;;;0.60;;
19347;SDS011;9810;52.480;9.806;2023-04-03T11:19:02;2.50;;;0.80;;
19347;SDS011;9810;52.480;9.806;2023-04-03T11:21:36;1.90;;;0.70;;
19347;SDS011;9810;52.480;9.806;2023-04-03T11:24:11;4.60;;;0.73;;
19347;SDS011;9810;52.480;9.806;2023-04-03T11:26:47;3.93;;;0.80;;
19347;SDS011;9810;52.480;9.806;2023-04-03T11:29:18;0.73;;;0.70;;
19347;SDS011;9810;52.480;9.806;2023-04-03T11:31:55;2.33;;;1.00;;
19347;SDS011;9810;52.480;9.806;2023-04-03T11:34:38;3.27;;;0.97;;
19347;SDS011;9810;52.480;9.806;2023-04-03T11:37:11;1.43;;;0.63;;
19347;SDS011;9810;52.480;9.806;2023-04-03T11:39:47;1.63;;;0.50;;
19347;SDS011;9810;52.480;9.806;2023-04-03T11:42:24;1.63;;;0.80;;
19347;SDS011;9810;52.480;9.806;2023-04-03T11:47:50;4.33;;;0.80;;
19347;SDS011;9810;52.480;9.806;2023-04-03T11:53:29;2.10;;;0.60;;
19347;SDS011;9810;52.480;9.806;2023-04-03T11:56:31;3.23;;;0.63;;
19347;SDS011;9810;52.480;9.806;2023-04-03T11:59:16;2.53;;;0.90;;
19347;SDS011;9810;52.480;9.806;2023-04-03T12:01:49;1.57;;;0.47;;
19347;SDS011;9810;52.480;9.806;2023-04-03T12:04:19;1.27;;;0.90;;
19347;SDS011;9810;52.480;9.806;2023-04-03T12:12:56;1.70;;;0.70;;
19347;SDS011;9810;52.480;9.806;2023-04-03T12:21:24;2.47;;;0.67;;
19347;SDS011;9810;52.480;9.806;2023-04-03T12:24:34;5.70;;;0.87;;
19347;SDS011;9810;52.480;9.806;2023-04-03T12:29:53;3.60;;;0.83;;
19347;SDS011;9810;52.480;9.806;2023-04-03T12:32:32;0.83;;;0.50;;
19347;SDS011;9810;52.480;9.806;2023-04-03T12:35:14;1.20;;;0.63;;
19347;SDS011;9810;52.480;9.806;2023-04-03T12:37:57;4.90;;;0.93;;
19347;SDS011;9810;52.480;9.806;2023-04-03T12:40:49;1.53;;;0.87;;
19347;SDS011;9810;52.480;9.806;2023-04-03T12:43:28;1.87;;;0.83;;
19347;SDS011;9810;52.480;9.806;2023-04-03T12:46:11;3.17;;;0.77;;
19347;SDS011;9810;52.480;9.806;2023-04-03T12:48:48;1.13;;;0.50;;
19347;SDS011;9810;52.480;9.806;2023-04-03T12:51:19;1.20;;;0.60;;
19347;SDS011;9810;52.480;9.806;2023-04-03T12:53:52;1.90;;;0.60;;
19347;SDS011;9810;52.480;9.806;2023-04-03T12:56:27;2.40;;;0.50;;
19347;SDS011;9810;52.480;9.806;2023-04-03T12:58:56;2.23;;;0.57;;
19347;SDS011;9810;52.480;9.806;2023-04-03T13:01:40;6.13;;;0.90;;
19347;SDS011;9810;52.480;9.806;2023-04-03T13:04:09;0.97;;;0.57;;
19347;SDS011;9810;52.480;9.806;2023-04-03T13:06:38;3.70;;;0.97;;
19347;SDS011;9810;52.480;9.806;2023-04-03T13:09:16;3.57;;;0.80;;
19347;SDS011;9810;52.480;9.806;2023-04-03T13:11:50;1.40;;;0.77;;
19347;SDS011;9810;52.480;9.806;2023-04-03T13:14:22;4.47;;;0.90;;
19347;SDS011;9810;52.480;9.806;2023-04-03T13:16:53;0.60;;;0.40;;
19347;SDS011;9810;52.480;9.806;2023-04-03T13:19:22;1.03;;;0.70;;
19347;SDS011;9810;52.480;9.806;2023-04-03T13:21:51;0.80;;;0.50;;
19347;SDS011;9810;52.480;9.806;2023-04-03T13:24:25;2.00;;;0.70;;
19347;SDS011;9810;52.480;9.806;2023-04-03T13:26:56;2.43;;;0.60;;
19347;SDS011;9810;52.480;9.806;2023-04-03T13:29:24;2.50;;;0.83;;
19347;SDS011;9810;52.480;9.806;2023-04-03T13:31:59;2.83;;;0.57;;
19347;SDS011;9810;52.480;9.806;2023-04-03T13:34:28;4.47;;;0.87;;
19347;SDS011;9810;52.480;9.806;2023-04-03T13:37:01;1.60;;;0.80;;
19347;SDS011;9810;52.480;9.806;2023-04-03T13:39:30;4.90;;;0.80;;
19347;SDS011;9810;52.480;9.806;2023-04-03T13:42:01;2.10;;;0.50;;
19347;SDS011;9810;52.480;9.806;2023-04-03T13:44:40;3.60;;;1.00;;
19347;SDS011;9810;52.480;9.806;2023-04-03T13:47:16;2.67;;;0.60;;
19347;SDS011;9810;52.480;9.806;2023-04-03T13:49:46;0.50;;;0.50;;
19347;SDS011;9810;52.480;9.806;2023-04-03T13:52:29;1.10;;;0.43;;
19347;SDS011;9810;52.480;9.806;2023-04-03T13:55:01;3.40;;;0.50;;
19347;SDS011;9810;52.480;9.806;2023-04-03T13:57:50;2.60;;;0.83;;
19347;SDS011;9810;52.480;9.806;2023-04-03T14:00:21;2.10;;;0.80;;
19347;SDS011;9810;52.480;9.806;2023-04-03T14:02:54;3.47;;;0.90;;
19347;SDS011;9810;52.480;9.806;2023-04-03T14:05:23;1.00;;;1.00;;
19347;SDS011;9810;52.480;9.806;2023-04-03T14:07:51;2.10;;;0.70;;
19347;SDS011;9810;52.480;9.806;2023-04-03T14:10:19;0.97;;;0.43;;
19347;SDS011;9810;52.480;9.806;2023-04-03T14:12:48;0.93;;;0.50;;
19347;SDS011;9810;52.480;9.806;2023-04-03T14:15:18;1.60;;;0.47;;
19347;SDS011;9810;52.480;9.806;2023-04-03T14:17:49;2.80;;;0.60;;
19347;SDS011;9810;52.480;9.806;2023-04-03T14:20:18;1.40;;;0.67;;
19347;SDS011;9810;52.480;9.806;2023-04-03T14:22:48;1.53;;;0.70;;
19347;SDS011;9810;52.480;9.806;2023-04-03T14:25:16;1.00;;;0.50;;
19347;SDS011;9810;52.480;9.806;2023-04-03T14:27:45;1.57;;;0.70;;
19347;SDS011;9810;52.480;9.806;2023-04-03T14:30:16;1.30;;;0.60;;
19347;SDS011;9810;52.480;9.806;2023-04-03T14:32:46;2.50;;;0.73;;
19347;SDS011;9810;52.480;9.806;2023-04-03T14:35:14;2.63;;;0.80;;
19347;SDS011;9810;52.480;9.806;2023-04-03T14:37:42;1.17;;;0.53;;
19347;SDS011;9810;52.480;9.806;2023-04-03T14:40:11;3.73;;;0.60;;
19347;SDS011;9810;52.480;9.806;2023-04-03T14:42:40;2.87;;;0.70;;
19347;SDS011;9810;52.480;9.806;2023-04-03T14:45:10;1.10;;;0.60;;
19347;SDS011;9810;52.480;9.806;2023-04-03T14:47:42;2.10;;;0.83;;
19347;SDS011;9810;52.480;9.806;2023-04-03T14:50:14;2.17;;;0.80;;
19347;SDS011;9810;52.480;9.806;2023-04-03T14:52:43;2.43;;;0.70;;
19347;SDS011;9810;52.480;9.806;2023-04-03T14:55:13;1.87;;;0.77;;
19347;SDS011;9810;52.480;9.806;2023-04-03T14:57:41;5.30;;;0.80;;
19347;SDS011;9810;52.480;9.806;2023-04-03T15:00:11;5.43;;;1.00;;
19347;SDS011;9810;52.480;9.806;2023-04-03T15:02:43;0.63;;;0.50;;
19347;SDS011;9810;52.480;9.806;2023-04-03T15:05:11;3.17;;;1.10;;
19347;SDS011;9810;52.480;9.806;2023-04-03T15:07:39;2.67;;;0.60;;
19347;SDS011;9810;52.480;9.806;2023-04-03T15:10:15;3.73;;;0.60;;
19347;SDS011;9810;52.480;9.806;2023-04-03T15:12:45;3.20;;;1.20;;
19347;SDS011;9810;52.480;9.806;2023-04-03T15:15:13;1.70;;;0.90;;
19347;SDS011;9810;52.480;9.806;2023-04-03T15:17:44;5.17;;;1.30;;
19347;SDS011;9810;52.480;9.806;2023-04-03T15:20:13;0.87;;;0.70;;
19347;SDS011;9810;52.480;9.806;2023-04-03T15:22:42;2.83;;;0.50;;
19347;SDS011;9810;52.480;9.806;2023-04-03T15:25:10;2.67;;;1.10;;
19347;SDS011;9810;52.480;9.806;2023-04-03T15:27:37;2.77;;;0.83;;
19347;SDS011;9810;52.480;9.806;2023-04-03T15:30:07;4.37;;;0.90;;
19347;SDS011;9810;52.480;9.806;2023-04-03T15:32:39;3.13;;;0.97;;
19347;SDS011;9810;52.480;9.806;2023-04-03T15:35:08;3.77;;;0.73;;
19347;SDS011;9810;52.480;9.806;2023-04-03T15:37:36;2.97;;;1.03;;
19347;SDS011;9810;52.480;9.806;2023-04-03T15:40:03;1.83;;;0.67;;
19347;SDS011;9810;52.480;9.806;2023-04-03T15:42:31;2.30;;;0.90;;
19347;SDS011;9810;52.480;9.806;2023-04-03T15:44:59;5.00;;;0.90;;